sensor_id;sensor_type;location;lat;lon;timestamp;temperature;humidity
25554;DHT22;13446;50.926;5.332;2023-01-25T00:00:49;3.50;99.90
25554;DHT22;13446;50.926;5.332;2023-01-25T00:03:15;3.50;99.90
25554;DHT22;13446;50.926;5.332;2023-01-25T00:05:41;3.40;99.90
25554;DHT22;13446;50.926;5.332;2023-01-25T00:08:06;3.40;99.90
25554;DHT22;13446;50.926;5.332;2023-01-25T00:10:32;3.50;99.90
25554;DHT22;13446;50.926;5.332;2023-01-25T00:12:58;3.40;99.90
25554;DHT22;13446;50.926;5.332;2023-01-25T00:15:23;3.40;99.90
25554;DHT22;13446;50.926;5.332;2023-01-25T00:17:49;3.50;99.90
25554;DHT22;13446;50.926;5.332;2023-01-25T00:20:15;3.30;99.90
25554;DHT22;13446;50.926;5.332;2023-01-25T00:22:40;3.40;99.90
25554;DHT22;13446;50.926;5.332;2023-01-25T00:25:06;3.20;99.90
25554;DHT22;13446;50.926;5.332;2023-01-25T00:27:31;3.30;99.90
25554;DHT22;13446;50.926;5.332;2023-01-25T00:29:57;3.40;99.90
25554;DHT22;13446;50.926;5.332;2023-01-25T00:34:49;3.30;99.90
25554;DHT22;13446;50.926;5.332;2023-01-25T00:37:19;3.30;99.90
25554;DHT22;13446;50.926;5.332;2023-01-25T00:39:45;3.20;99.90
25554;DHT22;13446;50.926;5.332;2023-01-25T00:42:12;3.40;99.90
25554;DHT22;13446;50.926;5.332;2023-01-25T00:44:38;3.60;99.90
25554;DHT22;13446;50.926;5.332;2023-01-25T00:47:03;3.50;99.90
25554;DHT22;13446;50.926;5.332;2023-01-25T00:49:32;3.40;99.90
25554;DHT22;13446;50.926;5.332;2023-01-25T00:51:59;3.40;99.90
25554;DHT22;13446;50.926;5.332;2023-01-25T00:54:24;3.50;99.90
25554;DHT22;13446;50.926;5.332;2023-01-25T00:56:50;3.50;99.90
25554;DHT22;13446;50.926;5.332;2023-01-25T00:59:21;3.40;99.90
25554;DHT22;13446;50.926;5.332;2023-01-25T01:01:46;3.40;99.90
25554;DHT22;13446;50.926;5.332;2023-01-25T01:04:12;3.50;99.90
25554;DHT22;13446;50.926;5.332;2023-01-25T01:06:39;3.60;99.90
25554;DHT22;13446;50.926;5.332;2023-01-25T01:09:05;3.60;99.90
25554;DHT22;13446;50.926;5.332;2023-01-25T01:11:31;3.70;99.90
25554;DHT22;13446;50.926;5.332;2023-01-25T01:13:57;3.80;99.90
25554;DHT22;13446;50.926;5.332;2023-01-25T01:16:24;3.90;99.90
25554;DHT22;13446;50.926;5.332;2023-01-25T01:18:50;3.70;99.90
25554;DHT22;13446;50.926;5.332;2023-01-25T01:21:16;3.70;99.90
25554;DHT22;13446;50.926;5.332;2023-01-25T01:23:41;3.70;99.90
25554;DHT22;13446;50.926;5.332;2023-01-25T01:26:08;3.90;99.90
25554;DHT22;13446;50.926;5.332;2023-01-25T01:28:34;3.80;99.90
25554;DHT22;13446;50.926;5.332;2023-01-25T01:31:00;3.60;99.90
25554;DHT22;13446;50.926;5.332;2023-01-25T01:33:26;3.50;99.90
25554;DHT22;13446;50.926;5.332;2023-01-25T01:35:52;3.50;99.90
25554;DHT22;13446;50.926;5.332;2023-01-25T01:38:17;3.50;99.90
25554;DHT22;13446;50.926;5.332;2023-01-25T01:40:43;3.70;99.90
25554;DHT22;13446;50.926;5.332;2023-01-25T01:43:15;3.50;99.90
25554;DHT22;13446;50.926;5.332;2023-01-25T01:45:48;3.60;99.90
25554;DHT22;13446;50.926;5.332;2023-01-25T01:50:39;3.70;99.90
25554;DHT22;13446;50.926;5.332;2023-01-25T01:53:05;3.80;99.90
25554;DHT22;13446;50.926;5.332;2023-01-25T01:55:30;3.70;99.90
25554;DHT22;13446;50.926;5.332;2023-01-25T01:57:56;3.80;99.90
25554;DHT22;13446;50.926;5.332;2023-01-25T02:00:27;3.70;99.90
25554;DHT22;13446;50.926;5.332;2023-01-25T02:02:54;3.50;99.90
25554;DHT22;13446;50.926;5.332;2023-01-25T02:07:48;3.60;99.90
25554;DHT22;13446;50.926;5.332;2023-01-25T02:10:15;3.50;99.90
25554;DHT22;13446;50.926;5.332;2023-01-25T02:12:41;3.30;99.90
25554;DHT22;13446;50.926;5.332;2023-01-25T02:15:08;3.30;99.90
25554;DHT22;13446;50.926;5.332;2023-01-25T02:17:35;3.10;99.90
25554;DHT22;13446;50.926;5.332;2023-01-25T02:22:47;3.40;99.90
25554;DHT22;13446;50.926;5.332;2023-01-25T02:25:17;3.30;99.90
25554;DHT22;13446;50.926;5.332;2023-01-25T02:28:03;3.10;99.90
25554;DHT22;13446;50.926;5.332;2023-01-25T02:30:30;3.30;99.90
25554;DHT22;13446;50.926;5.332;2023-01-25T02:32:57;3.30;99.90
25554;DHT22;13446;50.926;5.332;2023-01-25T02:35:24;3.40;99.90
25554;DHT22;13446;50.926;5.332;2023-01-25T02:37:49;3.40;99.90
25554;DHT22;13446;50.926;5.332;2023-01-25T02:40:16;3.30;99.90
25554;DHT22;13446;50.926;5.332;2023-01-25T02:42:42;3.50;99.90
25554;DHT22;13446;50.926;5.332;2023-01-25T02:45:09;3.50;99.90
25554;DHT22;13446;50.926;5.332;2023-01-25T02:47:35;3.30;99.90
25554;DHT22;13446;50.926;5.332;2023-01-25T02:50:01;3.30;99.90
25554;DHT22;13446;50.926;5.332;2023-01-25T02:52:27;3.00;99.90
25554;DHT22;13446;50.926;5.332;2023-01-25T02:54:52;2.80;99.90
25554;DHT22;13446;50.926;5.332;2023-01-25T02:57:18;2.80;99.90
25554;DHT22;13446;50.926;5.332;2023-01-25T02:59:43;3.00;99.90
25554;DHT22;13446;50.926;5.332;2023-01-25T03:02:09;3.20;99.90
25554;DHT22;13446;50.926;5.332;2023-01-25T03:04:35;3.20;99.90
25554;DHT22;13446;50.926;5.332;2023-01-25T03:07:00;3.30;99.90
25554;DHT22;13446;50.926;5.332;2023-01-25T03:09:28;3.20;99.90
25554;DHT22;13446;50.926;5.332;2023-01-25T03:11:53;3.20;99.90
25554;DHT22;13446;50.926;5.332;2023-01-25T03:14:19;3.30;99.90
25554;DHT22;13446;50.926;5.332;2023-01-25T03:16:44;3.30;99.90
25554;DHT22;13446;50.926;5.332;2023-01-25T03:19:10;3.40;99.90
25554;DHT22;13446;50.926;5.332;2023-01-25T03:21:36;3.40;99.90
25554;DHT22;13446;50.926;5.332;2023-01-25T03:24:01;3.30;99.90
25554;DHT22;13446;50.926;5.332;2023-01-25T03:26:27;3.30;99.90
25554;DHT22;13446;50.926;5.332;2023-01-25T03:28:53;3.30;99.90
25554;DHT22;13446;50.926;5.332;2023-01-25T03:31:18;3.40;99.90
25554;DHT22;13446;50.926;5.332;2023-01-25T03:33:44;3.50;99.90
25554;DHT22;13446;50.926;5.332;2023-01-25T03:36:09;3.30;99.90
25554;DHT22;13446;50.926;5.332;2023-01-25T03:38:35;3.20;99.90
25554;DHT22;13446;50.926;5.332;2023-01-25T03:41:01;3.20;99.90
25554;DHT22;13446;50.926;5.332;2023-01-25T03:43:27;3.20;99.90
25554;DHT22;13446;50.926;5.332;2023-01-25T03:45:53;3.20;99.90
25554;DHT22;13446;50.926;5.332;2023-01-25T03:48:19;3.30;99.90
25554;DHT22;13446;50.926;5.332;2023-01-25T03:50:48;3.50;99.90
25554;DHT22;13446;50.926;5.332;2023-01-25T03:53:18;3.40;99.90
25554;DHT22;13446;50.926;5.332;2023-01-25T03:55:56;3.50;99.90
25554;DHT22;13446;50.926;5.332;2023-01-25T03:58:22;3.40;99.90
25554;DHT22;13446;50.926;5.332;2023-01-25T04:00:47;3.50;99.90
25554;DHT22;13446;50.926;5.332;2023-01-25T04:03:13;3.60;99.90
25554;DHT22;13446;50.926;5.332;2023-01-25T04:05:40;3.40;99.90
25554;DHT22;13446;50.926;5.332;2023-01-25T04:08:06;3.40;99.90
25554;DHT22;13446;50.926;5.332;2023-01-25T04:10:31;3.50;99.90
25554;DHT22;13446;50.926;5.332;2023-01-25T04:12:57;3.60;99.90
25554;DHT22;13446;50.926;5.332;2023-01-25T04:15:22;3.50;99.90
25554;DHT22;13446;50.926;5.332;2023-01-25T04:17:48;3.20;99.90
25554;DHT22;13446;50.926;5.332;2023-01-25T04:20:13;3.10;99.90
25554;DHT22;13446;50.926;5.332;2023-01-25T04:22:39;3.10;99.90
25554;DHT22;13446;50.926;5.332;2023-01-25T04:25:06;3.30;99.90
25554;DHT22;13446;50.926;5.332;2023-01-25T04:27:32;3.30;99.90
25554;DHT22;13446;50.926;5.332;2023-01-25T04:29:58;3.20;99.90
25554;DHT22;13446;50.926;5.332;2023-01-25T04:32:23;3.20;99.90
25554;DHT22;13446;50.926;5.332;2023-01-25T04:34:49;3.30;99.90
25554;DHT22;13446;50.926;5.332;2023-01-25T04:37:14;3.70;99.90
25554;DHT22;13446;50.926;5.332;2023-01-25T04:39:40;3.70;99.90
25554;DHT22;13446;50.926;5.332;2023-01-25T04:42:05;3.40;99.90
25554;DHT22;13446;50.926;5.332;2023-01-25T04:44:31;3.30;99.90
25554;DHT22;13446;50.926;5.332;2023-01-25T04:46:56;3.20;99.90
25554;DHT22;13446;50.926;5.332;2023-01-25T04:49:22;3.10;99.90
25554;DHT22;13446;50.926;5.332;2023-01-25T04:51:48;3.20;99.90
25554;DHT22;13446;50.926;5.332;2023-01-25T04:54:13;3.20;99.90
25554;DHT22;13446;50.926;5.332;2023-01-25T04:56:39;3.10;99.90
25554;DHT22;13446;50.926;5.332;2023-01-25T04:59:04;3.10;99.90
25554;DHT22;13446;50.926;5.332;2023-01-25T05:01:30;3.20;99.90
25554;DHT22;13446;50.926;5.332;2023-01-25T05:03:57;3.20;99.90
25554;DHT22;13446;50.926;5.332;2023-01-25T05:06:23;3.20;99.90
25554;DHT22;13446;50.926;5.332;2023-01-25T05:08:49;3.30;99.90
25554;DHT22;13446;50.926;5.332;2023-01-25T05:11:14;3.30;99.90
25554;DHT22;13446;50.926;5.332;2023-01-25T05:13:40;3.30;99.90
25554;DHT22;13446;50.926;5.332;2023-01-25T05:16:05;3.20;99.90
25554;DHT22;13446;50.926;5.332;2023-01-25T05:18:31;3.20;99.90
25554;DHT22;13446;50.926;5.332;2023-01-25T05:20:56;3.30;99.90
25554;DHT22;13446;50.926;5.332;2023-01-25T05:23:22;3.10;99.90
25554;DHT22;13446;50.926;5.332;2023-01-25T05:25:47;3.40;99.90
25554;DHT22;13446;50.926;5.332;2023-01-25T05:28:32;3.80;99.90
25554;DHT22;13446;50.926;5.332;2023-01-25T05:30:57;3.60;99.90
25554;DHT22;13446;50.926;5.332;2023-01-25T05:33:23;3.40;99.90
25554;DHT22;13446;50.926;5.332;2023-01-25T05:35:48;3.20;99.90
25554;DHT22;13446;50.926;5.332;2023-01-25T05:38:14;3.10;99.90
25554;DHT22;13446;50.926;5.332;2023-01-25T05:40:39;3.50;99.90
25554;DHT22;13446;50.926;5.332;2023-01-25T05:43:05;3.50;99.90
25554;DHT22;13446;50.926;5.332;2023-01-25T05:45:30;3.30;99.90
25554;DHT22;13446;50.926;5.332;2023-01-25T05:47:56;3.30;99.90
25554;DHT22;13446;50.926;5.332;2023-01-25T05:50:22;3.30;99.90
25554;DHT22;13446;50.926;5.332;2023-01-25T05:52:48;3.20;99.90
25554;DHT22;13446;50.926;5.332;2023-01-25T05:55:13;3.10;99.90
25554;DHT22;13446;50.926;5.332;2023-01-25T05:57:39;3.10;99.90
25554;DHT22;13446;50.926;5.332;2023-01-25T06:00:05;3.40;99.90
25554;DHT22;13446;50.926;5.332;2023-01-25T06:02:31;3.00;99.90
25554;DHT22;13446;50.926;5.332;2023-01-25T06:04:59;2.90;99.90
25554;DHT22;13446;50.926;5.332;2023-01-25T06:07:25;2.80;99.90
25554;DHT22;13446;50.926;5.332;2023-01-25T06:09:50;2.70;99.90
25554;DHT22;13446;50.926;5.332;2023-01-25T06:12:19;2.90;99.90
25554;DHT22;13446;50.926;5.332;2023-01-25T06:14:44;3.10;99.90
25554;DHT22;13446;50.926;5.332;2023-01-25T06:17:11;2.90;99.90
25554;DHT22;13446;50.926;5.332;2023-01-25T06:19:37;2.90;99.90
25554;DHT22;13446;50.926;5.332;2023-01-25T06:22:03;2.90;99.90
25554;DHT22;13446;50.926;5.332;2023-01-25T06:24:28;2.90;99.90
25554;DHT22;13446;50.926;5.332;2023-01-25T06:26:54;2.80;99.90
25554;DHT22;13446;50.926;5.332;2023-01-25T06:29:19;2.70;99.90
25554;DHT22;13446;50.926;5.332;2023-01-25T06:31:45;2.80;99.90
25554;DHT22;13446;50.926;5.332;2023-01-25T06:34:10;2.80;99.90
25554;DHT22;13446;50.926;5.332;2023-01-25T06:36:36;2.60;99.90
25554;DHT22;13446;50.926;5.332;2023-01-25T06:39:01;2.70;99.90
25554;DHT22;13446;50.926;5.332;2023-01-25T06:41:27;2.90;99.90
25554;DHT22;13446;50.926;5.332;2023-01-25T06:43:53;3.00;99.90
25554;DHT22;13446;50.926;5.332;2023-01-25T06:46:20;3.00;99.90
25554;DHT22;13446;50.926;5.332;2023-01-25T06:48:46;3.00;99.90
25554;DHT22;13446;50.926;5.332;2023-01-25T06:51:14;3.20;99.90
25554;DHT22;13446;50.926;5.332;2023-01-25T06:53:41;3.20;99.90
25554;DHT22;13446;50.926;5.332;2023-01-25T06:56:11;3.20;99.90
25554;DHT22;13446;50.926;5.332;2023-01-25T06:58:37;3.10;99.90
25554;DHT22;13446;50.926;5.332;2023-01-25T07:01:07;3.10;99.90
25554;DHT22;13446;50.926;5.332;2023-01-25T07:03:36;3.10;99.90
25554;DHT22;13446;50.926;5.332;2023-01-25T07:06:02;3.10;99.90
25554;DHT22;13446;50.926;5.332;2023-01-25T07:08:28;3.00;99.90
25554;DHT22;13446;50.926;5.332;2023-01-25T07:11:01;2.90;99.90
25554;DHT22;13446;50.926;5.332;2023-01-25T07:13:27;2.80;99.90
25554;DHT22;13446;50.926;5.332;2023-01-25T07:15:57;2.90;99.90
25554;DHT22;13446;50.926;5.332;2023-01-25T07:18:24;2.90;99.90
25554;DHT22;13446;50.926;5.332;2023-01-25T07:20:50;3.00;99.90
25554;DHT22;13446;50.926;5.332;2023-01-25T07:23:15;3.10;99.90
25554;DHT22;13446;50.926;5.332;2023-01-25T07:25:45;3.10;99.90
25554;DHT22;13446;50.926;5.332;2023-01-25T07:28:11;2.90;99.90
25554;DHT22;13446;50.926;5.332;2023-01-25T07:30:37;3.00;99.90
25554;DHT22;13446;50.926;5.332;2023-01-25T07:33:02;3.00;99.90
25554;DHT22;13446;50.926;5.332;2023-01-25T07:35:28;3.10;99.90
25554;DHT22;13446;50.926;5.332;2023-01-25T07:37:54;2.80;99.90
25554;DHT22;13446;50.926;5.332;2023-01-25T07:40:20;2.70;99.90
25554;DHT22;13446;50.926;5.332;2023-01-25T07:42:45;2.60;99.90
25554;DHT22;13446;50.926;5.332;2023-01-25T07:45:11;2.50;99.90
25554;DHT22;13446;50.926;5.332;2023-01-25T07:47:36;2.70;99.90
25554;DHT22;13446;50.926;5.332;2023-01-25T07:50:02;2.60;99.90
25554;DHT22;13446;50.926;5.332;2023-01-25T07:52:27;2.90;99.90
25554;DHT22;13446;50.926;5.332;2023-01-25T07:54:53;3.00;99.90
25554;DHT22;13446;50.926;5.332;2023-01-25T07:57:18;3.00;99.90
25554;DHT22;13446;50.926;5.332;2023-01-25T07:59:44;2.90;99.90
25554;DHT22;13446;50.926;5.332;2023-01-25T08:02:10;3.10;99.90
25554;DHT22;13446;50.926;5.332;2023-01-25T08:04:36;3.20;99.90
25554;DHT22;13446;50.926;5.332;2023-01-25T08:07:02;3.00;99.90
25554;DHT22;13446;50.926;5.332;2023-01-25T08:09:27;3.00;99.90
25554;DHT22;13446;50.926;5.332;2023-01-25T08:11:53;3.00;99.90
25554;DHT22;13446;50.926;5.332;2023-01-25T08:14:18;2.90;99.90
25554;DHT22;13446;50.926;5.332;2023-01-25T08:16:44;3.00;99.90
25554;DHT22;13446;50.926;5.332;2023-01-25T08:19:09;3.00;99.90
25554;DHT22;13446;50.926;5.332;2023-01-25T08:21:36;3.00;99.90
25554;DHT22;13446;50.926;5.332;2023-01-25T08:24:03;3.10;99.90
25554;DHT22;13446;50.926;5.332;2023-01-25T08:26:29;2.90;99.90
25554;DHT22;13446;50.926;5.332;2023-01-25T08:28:55;3.10;99.90
25554;DHT22;13446;50.926;5.332;2023-01-25T08:31:25;3.10;99.90
25554;DHT22;13446;50.926;5.332;2023-01-25T08:33:51;2.90;99.90
25554;DHT22;13446;50.926;5.332;2023-01-25T08:36:17;2.90;99.90
25554;DHT22;13446;50.926;5.332;2023-01-25T08:38:44;2.80;99.90
25554;DHT22;13446;50.926;5.332;2023-01-25T08:41:19;2.90;99.90
25554;DHT22;13446;50.926;5.332;2023-01-25T08:43:45;3.00;99.90
25554;DHT22;13446;50.926;5.332;2023-01-25T08:46:11;2.70;99.90
25554;DHT22;13446;50.926;5.332;2023-01-25T08:48:37;2.70;99.90
25554;DHT22;13446;50.926;5.332;2023-01-25T08:51:02;2.80;99.90
25554;DHT22;13446;50.926;5.332;2023-01-25T08:53:29;2.90;99.90
25554;DHT22;13446;50.926;5.332;2023-01-25T08:55:55;2.80;99.90
25554;DHT22;13446;50.926;5.332;2023-01-25T08:58:21;2.90;99.90
25554;DHT22;13446;50.926;5.332;2023-01-25T09:00:47;3.10;99.90
25554;DHT22;13446;50.926;5.332;2023-01-25T09:03:13;3.30;99.90
25554;DHT22;13446;50.926;5.332;2023-01-25T09:05:39;3.10;99.90
25554;DHT22;13446;50.926;5.332;2023-01-25T09:08:05;3.20;99.90
25554;DHT22;13446;50.926;5.332;2023-01-25T09:10:32;3.30;99.90
25554;DHT22;13446;50.926;5.332;2023-01-25T09:12:57;3.30;99.90
25554;DHT22;13446;50.926;5.332;2023-01-25T09:15:23;3.30;99.90
25554;DHT22;13446;50.926;5.332;2023-01-25T09:17:52;3.10;99.90
25554;DHT22;13446;50.926;5.332;2023-01-25T09:20:18;3.10;99.90
25554;DHT22;13446;50.926;5.332;2023-01-25T09:22:44;3.10;99.90
25554;DHT22;13446;50.926;5.332;2023-01-25T09:25:09;3.00;99.90
25554;DHT22;13446;50.926;5.332;2023-01-25T09:27:37;3.00;99.90
25554;DHT22;13446;50.926;5.332;2023-01-25T09:30:03;2.90;99.90
25554;DHT22;13446;50.926;5.332;2023-01-25T09:32:29;3.00;99.90
25554;DHT22;13446;50.926;5.332;2023-01-25T09:34:54;3.20;99.90
25554;DHT22;13446;50.926;5.332;2023-01-25T09:37:20;3.20;99.90
25554;DHT22;13446;50.926;5.332;2023-01-25T09:39:45;3.40;99.90
25554;DHT22;13446;50.926;5.332;2023-01-25T09:42:33;3.40;99.90
25554;DHT22;13446;50.926;5.332;2023-01-25T09:50:35;3.20;99.90
25554;DHT22;13446;50.926;5.332;2023-01-25T09:55:31;3.20;99.90
25554;DHT22;13446;50.926;5.332;2023-01-25T09:57:57;3.00;99.90
25554;DHT22;13446;50.926;5.332;2023-01-25T10:00:30;2.90;99.90
25554;DHT22;13446;50.926;5.332;2023-01-25T10:05:42;3.30;99.90
25554;DHT22;13446;50.926;5.332;2023-01-25T10:10:49;3.50;99.90
25554;DHT22;13446;50.926;5.332;2023-01-25T10:13:18;3.70;99.90
25554;DHT22;13446;50.926;5.332;2023-01-25T10:15:47;3.60;99.90
25554;DHT22;13446;50.926;5.332;2023-01-25T10:18:18;3.60;99.90
25554;DHT22;13446;50.926;5.332;2023-01-25T10:20:50;3.60;99.90
25554;DHT22;13446;50.926;5.332;2023-01-25T10:26:06;3.70;99.90
25554;DHT22;13446;50.926;5.332;2023-01-25T10:28:48;3.60;99.90
25554;DHT22;13446;50.926;5.332;2023-01-25T10:33:42;3.50;99.90
25554;DHT22;13446;50.926;5.332;2023-01-25T10:36:11;3.40;99.90
25554;DHT22;13446;50.926;5.332;2023-01-25T10:38:38;3.50;99.90
25554;DHT22;13446;50.926;5.332;2023-01-25T10:41:11;3.40;99.90
25554;DHT22;13446;50.926;5.332;2023-01-25T10:43:38;3.00;99.90
25554;DHT22;13446;50.926;5.332;2023-01-25T10:46:09;3.00;99.90
25554;DHT22;13446;50.926;5.332;2023-01-25T10:48:39;3.20;99.90
25554;DHT22;13446;50.926;5.332;2023-01-25T10:51:05;3.40;99.90
25554;DHT22;13446;50.926;5.332;2023-01-25T10:53:35;3.30;99.90
25554;DHT22;13446;50.926;5.332;2023-01-25T10:56:03;3.20;99.90
25554;DHT22;13446;50.926;5.332;2023-01-25T10:58:34;2.90;99.90
25554;DHT22;13446;50.926;5.332;2023-01-25T11:01:00;2.80;99.90
25554;DHT22;13446;50.926;5.332;2023-01-25T11:03:32;2.90;99.90
25554;DHT22;13446;50.926;5.332;2023-01-25T11:05:58;2.80;99.90
25554;DHT22;13446;50.926;5.332;2023-01-25T11:08:25;2.90;99.90
25554;DHT22;13446;50.926;5.332;2023-01-25T11:10:57;2.30;99.90
25554;DHT22;13446;50.926;5.332;2023-01-25T11:13:24;2.10;99.90
25554;DHT22;13446;50.926;5.332;2023-01-25T11:15:51;2.20;99.90
25554;DHT22;13446;50.926;5.332;2023-01-25T11:20:43;2.20;99.90
25554;DHT22;13446;50.926;5.332;2023-01-25T11:23:22;2.50;99.90
25554;DHT22;13446;50.926;5.332;2023-01-25T11:25:49;2.40;99.90
25554;DHT22;13446;50.926;5.332;2023-01-25T11:28:23;2.00;99.90
25554;DHT22;13446;50.926;5.332;2023-01-25T11:30:50;1.90;99.90
25554;DHT22;13446;50.926;5.332;2023-01-25T11:33:16;1.90;99.90
25554;DHT22;13446;50.926;5.332;2023-01-25T11:38:27;2.30;99.90
25554;DHT22;13446;50.926;5.332;2023-01-25T11:51:38;2.90;99.90
25554;DHT22;13446;50.926;5.332;2023-01-25T11:54:17;2.70;99.90
25554;DHT22;13446;50.926;5.332;2023-01-25T11:57:26;2.70;99.90
25554;DHT22;13446;50.926;5.332;2023-01-25T12:02:20;2.60;99.90
25554;DHT22;13446;50.926;5.332;2023-01-25T12:07:41;2.80;99.90
25554;DHT22;13446;50.926;5.332;2023-01-25T12:30:51;3.10;99.90
25554;DHT22;13446;50.926;5.332;2023-01-25T12:38:38;3.30;99.90
25554;DHT22;13446;50.926;5.332;2023-01-25T12:41:18;3.40;99.90
25554;DHT22;13446;50.926;5.332;2023-01-25T12:43:47;3.40;99.90
25554;DHT22;13446;50.926;5.332;2023-01-25T12:46:25;3.50;99.90
25554;DHT22;13446;50.926;5.332;2023-01-25T12:48:53;3.50;99.90
25554;DHT22;13446;50.926;5.332;2023-01-25T12:51:20;3.40;99.90
25554;DHT22;13446;50.926;5.332;2023-01-25T12:53:46;3.20;99.90
25554;DHT22;13446;50.926;5.332;2023-01-25T12:59:02;3.20;99.90
25554;DHT22;13446;50.926;5.332;2023-01-25T13:01:40;3.30;99.90
25554;DHT22;13446;50.926;5.332;2023-01-25T13:09:18;3.40;99.90
25554;DHT22;13446;50.926;5.332;2023-01-25T13:11:47;3.50;99.90
25554;DHT22;13446;50.926;5.332;2023-01-25T13:16:45;3.30;99.90
25554;DHT22;13446;50.926;5.332;2023-01-25T13:21:58;3.30;99.90
25554;DHT22;13446;50.926;5.332;2023-01-25T13:24:24;3.30;99.90
25554;DHT22;13446;50.926;5.332;2023-01-25T13:31:54;3.00;99.90
25554;DHT22;13446;50.926;5.332;2023-01-25T13:37:14;2.90;99.90
25554;DHT22;13446;50.926;5.332;2023-01-25T13:39:41;2.30;99.90
25554;DHT22;13446;50.926;5.332;2023-01-25T13:44:34;2.60;99.90
25554;DHT22;13446;50.926;5.332;2023-01-25T13:47:04;2.60;99.90
25554;DHT22;13446;50.926;5.332;2023-01-25T13:49:41;2.80;99.90
25554;DHT22;13446;50.926;5.332;2023-01-25T13:52:16;2.90;99.90
25554;DHT22;13446;50.926;5.332;2023-01-25T13:54:42;3.00;99.90
25554;DHT22;13446;50.926;5.332;2023-01-25T13:57:12;2.90;99.90
25554;DHT22;13446;50.926;5.332;2023-01-25T13:59:38;2.80;99.90
25554;DHT22;13446;50.926;5.332;2023-01-25T14:02:22;2.80;99.90
25554;DHT22;13446;50.926;5.332;2023-01-25T14:04:49;2.80;99.90
25554;DHT22;13446;50.926;5.332;2023-01-25T14:07:16;2.90;99.90
25554;DHT22;13446;50.926;5.332;2023-01-25T14:09:42;2.90;99.90
25554;DHT22;13446;50.926;5.332;2023-01-25T14:12:09;2.80;99.90
25554;DHT22;13446;50.926;5.332;2023-01-25T14:14:36;2.30;99.90
25554;DHT22;13446;50.926;5.332;2023-01-25T14:17:16;2.40;99.90
25554;DHT22;13446;50.926;5.332;2023-01-25T14:19:43;2.40;99.90
25554;DHT22;13446;50.926;5.332;2023-01-25T14:24:37;2.10;99.90
25554;DHT22;13446;50.926;5.332;2023-01-25T14:27:03;2.10;99.90
25554;DHT22;13446;50.926;5.332;2023-01-25T14:29:32;2.40;99.90
25554;DHT22;13446;50.926;5.332;2023-01-25T14:31:59;2.50;99.90
25554;DHT22;13446;50.926;5.332;2023-01-25T14:34:25;2.70;99.90
25554;DHT22;13446;50.926;5.332;2023-01-25T14:37:04;2.70;99.90
25554;DHT22;13446;50.926;5.332;2023-01-25T14:39:31;2.90;99.90
25554;DHT22;13446;50.926;5.332;2023-01-25T14:41:57;2.40;99.90
25554;DHT22;13446;50.926;5.332;2023-01-25T14:44:22;2.20;99.90
25554;DHT22;13446;50.926;5.332;2023-01-25T14:47:17;2.00;99.90
25554;DHT22;13446;50.926;5.332;2023-01-25T14:49:37;2.10;99.90
25554;DHT22;13446;50.926;5.332;2023-01-25T14:52:20;2.00;99.90
25554;DHT22;13446;50.926;5.332;2023-01-25T14:54:49;1.60;99.90
25554;DHT22;13446;50.926;5.332;2023-01-25T14:59:52;1.40;99.90
25554;DHT22;13446;50.926;5.332;2023-01-25T15:02:22;1.50;99.90
25554;DHT22;13446;50.926;5.332;2023-01-25T15:07:35;1.60;99.90
25554;DHT22;13446;50.926;5.332;2023-01-25T15:10:02;1.50;99.90
25554;DHT22;13446;50.926;5.332;2023-01-25T15:12:29;1.80;99.90
25554;DHT22;13446;50.926;5.332;2023-01-25T15:14:55;2.00;99.90
25554;DHT22;13446;50.926;5.332;2023-01-25T15:17:34;2.20;99.90
25554;DHT22;13446;50.926;5.332;2023-01-25T15:20:00;2.30;99.90
25554;DHT22;13446;50.926;5.332;2023-01-25T15:22:25;2.50;99.90
25554;DHT22;13446;50.926;5.332;2023-01-25T15:24:51;2.50;99.90
25554;DHT22;13446;50.926;5.332;2023-01-25T15:27:16;2.30;99.90
25554;DHT22;13446;50.926;5.332;2023-01-25T15:29:42;2.30;99.90
25554;DHT22;13446;50.926;5.332;2023-01-25T15:32:08;2.20;99.90
25554;DHT22;13446;50.926;5.332;2023-01-25T15:34:41;2.40;99.90
25554;DHT22;13446;50.926;5.332;2023-01-25T15:37:07;2.40;99.90
25554;DHT22;13446;50.926;5.332;2023-01-25T15:39:33;2.50;99.90
25554;DHT22;13446;50.926;5.332;2023-01-25T15:41:59;2.60;99.90
25554;DHT22;13446;50.926;5.332;2023-01-25T15:44:24;2.60;99.90
25554;DHT22;13446;50.926;5.332;2023-01-25T15:46:50;2.60;99.90
25554;DHT22;13446;50.926;5.332;2023-01-25T15:49:17;2.30;99.90
25554;DHT22;13446;50.926;5.332;2023-01-25T15:51:45;2.10;99.90
25554;DHT22;13446;50.926;5.332;2023-01-25T15:54:11;2.30;99.90
25554;DHT22;13446;50.926;5.332;2023-01-25T15:56:38;2.60;99.90
25554;DHT22;13446;50.926;5.332;2023-01-25T15:59:05;2.70;99.90
25554;DHT22;13446;50.926;5.332;2023-01-25T16:01:31;2.80;99.90
25554;DHT22;13446;50.926;5.332;2023-01-25T16:03:57;2.90;99.90
25554;DHT22;13446;50.926;5.332;2023-01-25T16:06:40;2.30;99.90
25554;DHT22;13446;50.926;5.332;2023-01-25T16:09:19;2.40;99.90
25554;DHT22;13446;50.926;5.332;2023-01-25T16:11:46;2.40;99.90
25554;DHT22;13446;50.926;5.332;2023-01-25T16:14:12;2.50;99.90
25554;DHT22;13446;50.926;5.332;2023-01-25T16:16:39;2.40;99.90
25554;DHT22;13446;50.926;5.332;2023-01-25T16:19:05;2.30;99.90
25554;DHT22;13446;50.926;5.332;2023-01-25T16:21:37;2.20;99.90
25554;DHT22;13446;50.926;5.332;2023-01-25T16:24:03;2.30;99.90
25554;DHT22;13446;50.926;5.332;2023-01-25T16:26:28;2.30;99.90
25554;DHT22;13446;50.926;5.332;2023-01-25T16:28:54;2.40;99.90
25554;DHT22;13446;50.926;5.332;2023-01-25T16:31:20;2.40;99.90
25554;DHT22;13446;50.926;5.332;2023-01-25T16:33:45;2.40;99.90
25554;DHT22;13446;50.926;5.332;2023-01-25T16:36:13;2.50;99.90
25554;DHT22;13446;50.926;5.332;2023-01-25T16:38:39;2.10;99.90
25554;DHT22;13446;50.926;5.332;2023-01-25T16:41:04;1.90;99.90
25554;DHT22;13446;50.926;5.332;2023-01-25T16:43:30;1.90;99.90
25554;DHT22;13446;50.926;5.332;2023-01-25T16:45:58;1.90;99.90
25554;DHT22;13446;50.926;5.332;2023-01-25T16:48:24;2.00;99.90
25554;DHT22;13446;50.926;5.332;2023-01-25T16:50:50;2.10;99.90
25554;DHT22;13446;50.926;5.332;2023-01-25T16:53:15;2.20;99.90
25554;DHT22;13446;50.926;5.332;2023-01-25T16:55:41;2.20;99.90
25554;DHT22;13446;50.926;5.332;2023-01-25T16:58:07;2.10;99.90
25554;DHT22;13446;50.926;5.332;2023-01-25T17:00:32;2.00;99.90
25554;DHT22;13446;50.926;5.332;2023-01-25T17:02:58;2.10;99.90
25554;DHT22;13446;50.926;5.332;2023-01-25T17:05:23;2.10;99.90
25554;DHT22;13446;50.926;5.332;2023-01-25T17:07:49;2.10;99.90
25554;DHT22;13446;50.926;5.332;2023-01-25T17:10:15;2.10;99.90
25554;DHT22;13446;50.926;5.332;2023-01-25T17:12:41;2.20;99.90
25554;DHT22;13446;50.926;5.332;2023-01-25T17:15:07;2.00;99.90
25554;DHT22;13446;50.926;5.332;2023-01-25T17:17:33;2.00;99.90
25554;DHT22;13446;50.926;5.332;2023-01-25T17:19:59;1.80;99.90
25554;DHT22;13446;50.926;5.332;2023-01-25T17:22:25;1.80;99.90
25554;DHT22;13446;50.926;5.332;2023-01-25T17:24:51;1.90;99.90
25554;DHT22;13446;50.926;5.332;2023-01-25T17:27:16;1.80;99.90
25554;DHT22;13446;50.926;5.332;2023-01-25T17:29:42;1.80;99.90
25554;DHT22;13446;50.926;5.332;2023-01-25T17:32:08;1.70;99.90